Time;durP1;ratioP1;P1;durP2;ratioP2;P2;SDS_P1;SDS_P2;PMS_P1;PMS_P2;Temp;Humidity;BMP_temperature;BMP_pressure;BME280_temperature;BME280_humidity;BME280_pressure;Samples;Min_cycle;Max_cycle;Signal;HPM_P1;HPM_P2
2023/03/21 00:01:55;;;;;;;36.50;24.40;;;;;;;;;;105570;1256;60482;-48
2023/03/21 00:04:26;;;;;;;39.40;25.00;;;;;;;;;;105697;1251;60405;-51
2023/03/21 00:07:02;;;;;;;35.20;23.60;;;;;;;;;;105749;1255;62149;-51
2023/03/21 00:09:30;;;;;;;38.40;25.20;;;;;;;;;;105609;1258;60481;-48
2023/03/21 00:12:01;;;;;;;40.70;24.20;;;;;;;;;;105721;1255;60480;-48
2023/03/21 00:14:29;;;;;;;40.10;24.20;;;;;;;;;;105516;1257;60367;-48
2023/03/21 00:16:57;;;;;;;39.10;25.10;;;;;;;;;;105823;1252;60510;-49
2023/03/21 00:19:27;;;;;;;40.40;24.00;;;;;;;;;;105643;1251;61923;-48
2023/03/21 00:21:56;;;;;;;42.50;25.60;;;;;;;;;;108450;1257;59156;-48
2023/03/21 00:24:35;;;;;;;35.20;22.80;;;;;;;;;;105680;1252;60862;-45
2023/03/21 00:27:03;;;;;;;40.90;23.60;;;;;;;;;;105711;1251;60444;-46
2023/03/21 00:29:51;;;;;;;35.00;23.90;;;;;;;;;;105792;1251;60477;-50
2023/03/21 00:32:20;;;;;;;44.30;26.30;;;;;;;;;;105671;1258;61869;-47
2023/03/21 00:34:48;;;;;;;39.20;24.80;;;;;;;;;;105868;1257;60534;-48
2023/03/21 00:37:40;;;;;;;39.40;26.20;;;;;;;;;;105752;1251;60772;-47
2023/03/21 00:40:11;;;;;;;42.60;26.80;;;;;;;;;;109307;1251;58515;-48
2023/03/21 00:42:52;;;;;;;49.50;29.30;;;;;;;;;;106977;1251;60380;-48
2023/03/21 00:45:20;;;;;;;41.80;27.50;;;;;;;;;;105727;1258;62098;-46
2023/03/21 00:47:49;;;;;;;48.90;28.00;;;;;;;;;;105731;1258;60385;-47
2023/03/21 00:50:18;;;;;;;46.10;25.90;;;;;;;;;;105573;1251;60983;-46
2023/03/21 00:52:48;;;;;;;41.00;25.50;;;;;;;;;;108056;1251;59119;-48
2023/03/21 00:55:18;;;;;;;43.10;25.00;;;;;;;;;;105628;1255;60306;-47
2023/03/21 00:57:46;;;;;;;45.20;26.30;;;;;;;;;;105980;1251;62127;-48
2023/03/21 01:00:26;;;;;;;43.10;26.50;;;;;;;;;;108059;1251;58219;-47
2023/03/21 01:02:57;;;;;;;49.20;28.80;;;;;;;;;;109249;1254;60850;-49
2023/03/21 01:08:29;;;;;;;47.50;27.40;;;;;;;;;;109326;1251;58167;-49
2023/03/21 01:11:14;;;;;;;44.20;25.40;;;;;;;;;;109288;1254;61939;-49
2023/03/21 01:13:44;;;;;;;42.20;26.20;;;;;;;;;;109285;1251;59973;-50
2023/03/21 01:16:24;;;;;;;39.00;23.60;;;;;;;;;;108197;1255;59730;-49
2023/03/21 01:18:52;;;;;;;38.90;24.80;;;;;;;;;;109303;1251;58326;-49
2023/03/21 01:21:20;;;;;;;39.90;24.80;;;;;;;;;;109208;1251;58254;-49
2023/03/21 01:23:48;;;;;;;39.80;25.00;;;;;;;;;;107883;1251;61342;-49
2023/03/21 01:26:15;;;;;;;40.40;26.30;;;;;;;;;;105784;1256;60417;-48
2023/03/21 01:28:44;;;;;;;40.60;25.10;;;;;;;;;;105618;1251;60763;-47
2023/03/21 01:31:12;;;;;;;42.10;25.70;;;;;;;;;;106032;1254;60533;-50
2023/03/21 01:33:41;;;;;;;35.00;24.10;;;;;;;;;;109278;1251;58946;-48
2023/03/21 01:36:12;;;;;;;39.40;24.30;;;;;;;;;;106692;1255;60906;-46
2023/03/21 01:38:41;;;;;;;40.10;25.50;;;;;;;;;;107300;1254;60373;-49
2023/03/21 01:41:25;;;;;;;39.70;25.10;;;;;;;;;;106645;1254;60791;-49
2023/03/21 01:44:17;;;;;;;41.10;25.70;;;;;;;;;;105552;1251;60546;-48
2023/03/21 01:46:48;;;;;;;37.70;25.20;;;;;;;;;;105858;1251;60326;-49
2023/03/21 01:49:46;;;;;;;41.70;25.20;;;;;;;;;;105708;1251;62092;-48
2023/03/21 01:52:36;;;;;;;40.90;25.90;;;;;;;;;;105739;1257;60433;-50
2023/03/21 01:55:12;;;;;;;40.00;25.70;;;;;;;;;;107623;1257;59735;-47
2023/03/21 01:57:53;;;;;;;43.20;26.20;;;;;;;;;;105839;1256;60524;-49
2023/03/21 02:00:43;;;;;;;39.90;25.40;;;;;;;;;;105625;1252;60791;-49
2023/03/21 02:03:21;;;;;;;36.30;24.00;;;;;;;;;;105705;1254;61197;-47
2023/03/21 02:06:22;;;;;;;42.40;26.30;;;;;;;;;;105612;1251;60456;-49
2023/03/21 02:08:55;;;;;;;39.10;25.10;;;;;;;;;;105663;1251;60609;-47
2023/03/21 02:11:23;;;;;;;41.00;26.20;;;;;;;;;;105695;1251;60526;-49
2023/03/21 02:13:56;;;;;;;35.50;23.10;;;;;;;;;;105666;1251;60443;-49
2023/03/21 02:17:00;;;;;;;41.20;25.40;;;;;;;;;;105497;1251;61312;-49
2023/03/21 02:19:45;;;;;;;41.30;25.40;;;;;;;;;;108689;1251;58995;-48
2023/03/21 02:22:47;;;;;;;40.20;23.70;;;;;;;;;;106078;1256;60673;-49
2023/03/21 02:25:34;;;;;;;39.00;26.20;;;;;;;;;;105291;1251;60504;-48
2023/03/21 02:28:13;;;;;;;43.30;25.80;;;;;;;;;;108697;1253;58426;-48
2023/03/21 02:31:01;;;;;;;42.50;26.10;;;;;;;;;;105827;1257;62391;-49
2023/03/21 02:33:36;;;;;;;39.10;24.70;;;;;;;;;;106031;1257;60422;-49
2023/03/21 02:36:25;;;;;;;40.70;25.10;;;;;;;;;;105741;1257;60777;-48
2023/03/21 02:38:55;;;;;;;41.40;23.30;;;;;;;;;;105779;1258;60664;-49
2023/03/21 02:41:25;;;;;;;41.90;25.70;;;;;;;;;;105841;1254;60406;-48
2023/03/21 02:44:02;;;;;;;41.80;25.50;;;;;;;;;;106167;1257;64179;-50
2023/03/21 02:46:34;;;;;;;40.00;25.80;;;;;;;;;;105735;1251;60512;-47
2023/03/21 02:49:26;;;;;;;39.80;25.50;;;;;;;;;;106543;1251;60579;-49
2023/03/21 02:51:56;;;;;;;40.00;24.50;;;;;;;;;;105550;1257;60413;-50
2023/03/21 02:54:32;;;;;;;37.90;24.90;;;;;;;;;;105568;1256;60354;-49
2023/03/21 02:57:16;;;;;;;40.10;24.90;;;;;;;;;;105624;1257;62153;-48
2023/03/21 02:59:44;;;;;;;41.90;24.90;;;;;;;;;;105960;1251;60364;-48
2023/03/21 03:02:27;;;;;;;38.80;24.80;;;;;;;;;;108774;1257;60845;-47
2023/03/21 03:04:55;;;;;;;42.80;24.80;;;;;;;;;;106019;1252;60761;-48
2023/03/21 03:07:29;;;;;;;39.20;24.50;;;;;;;;;;106392;1251;60996;-47
2023/03/21 03:10:03;;;;;;;40.30;24.90;;;;;;;;;;105579;1256;61953;-51
2023/03/21 03:12:34;;;;;;;42.00;26.30;;;;;;;;;;105804;1256;60329;-47
2023/03/21 03:15:06;;;;;;;40.80;26.50;;;;;;;;;;109193;1251;60382;-48
2023/03/21 03:17:41;;;;;;;45.20;26.90;;;;;;;;;;106655;1256;60375;-48
2023/03/21 03:20:28;;;;;;;43.00;27.30;;;;;;;;;;106086;1257;60380;-48
2023/03/21 03:23:12;;;;;;;45.10;27.80;;;;;;;;;;105606;1251;62234;-48
2023/03/21 03:25:42;;;;;;;43.00;27.00;;;;;;;;;;106099;1251;60373;-48
2023/03/21 03:28:14;;;;;;;42.20;27.20;;;;;;;;;;105636;1251;60619;-48
2023/03/21 03:30:43;;;;;;;46.30;28.00;;;;;;;;;;106175;1251;60431;-49
2023/03/21 03:33:31;;;;;;;49.10;29.10;;;;;;;;;;105549;1257;60425;-49
2023/03/21 03:36:01;;;;;;;44.20;29.40;;;;;;;;;;108633;1251;62061;-49
2023/03/21 03:38:35;;;;;;;50.60;30.10;;;;;;;;;;109363;1251;58635;-50
2023/03/21 03:41:11;;;;;;;47.20;29.90;;;;;;;;;;106820;1254;60953;-48
2023/03/21 03:43:47;;;;;;;42.80;27.60;;;;;;;;;;108599;1253;60450;-49
2023/03/21 03:46:23;;;;;;;47.60;27.70;;;;;;;;;;106988;1251;60794;-48
2023/03/21 03:48:52;;;;;;;46.60;26.80;;;;;;;;;;106031;1253;61368;-48
2023/03/21 03:51:22;;;;;;;43.70;28.20;;;;;;;;;;106060;1256;60437;-48
2023/03/21 03:54:31;;;;;;;44.60;27.60;;;;;;;;;;109163;1251;59579;-50
2023/03/21 03:57:00;;;;;;;45.60;27.00;;;;;;;;;;109283;1251;58799;-50
2023/03/21 03:59:28;;;;;;;43.00;26.70;;;;;;;;;;109056;1251;59360;-50
2023/03/21 04:02:09;;;;;;;40.40;25.30;;;;;;;;;;109259;1251;62261;-49
2023/03/21 04:04:38;;;;;;;41.80;26.20;;;;;;;;;;109273;1251;58354;-50
2023/03/21 04:07:08;;;;;;;42.90;26.80;;;;;;;;;;109055;1251;59553;-50
2023/03/21 04:09:41;;;;;;;41.60;25.00;;;;;;;;;;109151;1251;58174;-50
2023/03/21 04:12:13;;;;;;;42.20;25.40;;;;;;;;;;109261;1253;58268;-48
2023/03/21 04:14:43;;;;;;;40.70;25.80;;;;;;;;;;109292;1251;62164;-48
2023/03/21 04:17:21;;;;;;;39.00;24.80;;;;;;;;;;109262;1251;58185;-48
2023/03/21 04:19:50;;;;;;;39.60;25.70;;;;;;;;;;109302;1251;60725;-48
2023/03/21 04:22:24;;;;;;;37.30;25.00;;;;;;;;;;109182;1251;59344;-48
2023/03/21 04:24:53;;;;;;;36.70;24.80;;;;;;;;;;109151;1251;58435;-48
2023/03/21 04:27:21;;;;;;;42.60;25.80;;;;;;;;;;107220;1253;62089;-46
2023/03/21 04:30:06;;;;;;;45.10;28.50;;;;;;;;;;105728;1251;60444;-47
2023/03/21 04:32:52;;;;;;;41.00;25.70;;;;;;;;;;108726;1251;60530;-48
2023/03/21 04:35:21;;;;;;;44.70;28.00;;;;;;;;;;105803;1251;60527;-46
2023/03/21 04:37:49;;;;;;;49.20;30.00;;;;;;;;;;109243;1251;59282;-48
2023/03/21 04:40:17;;;;;;;47.30;29.70;;;;;;;;;;107931;1253;62307;-47
2023/03/21 04:42:46;;;;;;;45.00;28.90;;;;;;;;;;106613;1251;60605;-46
2023/03/21 04:45:14;;;;;;;55.30;30.20;;;;;;;;;;106052;1252;60763;-48
2023/03/21 04:47:44;;;;;;;49.60;29.00;;;;;;;;;;105805;1257;60556;-48
2023/03/21 04:50:14;;;;;;;52.10;30.50;;;;;;;;;;106382;1252;60510;-47
2023/03/21 04:52:43;;;;;;;47.20;29.50;;;;;;;;;;106296;1251;61919;-48
2023/03/21 04:55:11;;;;;;;50.50;28.90;;;;;;;;;;107106;1256;60283;-48
2023/03/21 04:57:38;;;;;;;48.80;30.20;;;;;;;;;;105630;1256;60564;-47
2023/03/21 05:00:10;;;;;;;49.00;30.60;;;;;;;;;;105754;1256;60367;-49
2023/03/21 05:02:39;;;;;;;52.10;32.20;;;;;;;;;;105608;1251;60469;-47
2023/03/21 05:05:10;;;;;;;52.60;31.90;;;;;;;;;;106030;1255;62100;-46
2023/03/21 05:07:38;;;;;;;51.60;33.60;;;;;;;;;;105977;1256;60424;-48
2023/03/21 05:10:09;;;;;;;52.10;32.10;;;;;;;;;;105790;1251;60575;-48
2023/03/21 05:12:38;;;;;;;52.40;32.20;;;;;;;;;;105519;1255;60632;-47
2023/03/21 05:15:07;;;;;;;49.00;30.50;;;;;;;;;;105631;1257;60328;-45
2023/03/21 05:17:43;;;;;;;48.40;30.90;;;;;;;;;;105263;1256;62607;-48
2023/03/21 05:20:14;;;;;;;52.40;34.30;;;;;;;;;;105602;1256;60434;-48
2023/03/21 05:22:45;;;;;;;49.90;30.20;;;;;;;;;;106458;1256;60507;-47
2023/03/21 05:25:16;;;;;;;52.70;32.80;;;;;;;;;;105821;1251;61167;-47
2023/03/21 05:28:06;;;;;;;55.90;32.60;;;;;;;;;;105698;1256;60440;-46
2023/03/21 05:30:35;;;;;;;50.50;33.30;;;;;;;;;;105978;1251;62089;-48
2023/03/21 05:33:03;;;;;;;57.20;36.10;;;;;;;;;;105507;1256;60423;-48
2023/03/21 05:35:31;;;;;;;60.80;37.20;;;;;;;;;;106452;1251;60744;-50
2023/03/21 05:38:01;;;;;;;60.40;34.10;;;;;;;;;;105590;1256;60555;-47
2023/03/21 05:40:32;;;;;;;55.40;35.00;;;;;;;;;;105541;1251;60487;-46
2023/03/21 05:43:01;;;;;;;55.60;34.40;;;;;;;;;;105777;1251;61760;-48
2023/03/21 05:45:31;;;;;;;54.30;33.50;;;;;;;;;;105509;1250;60463;-49
2023/03/21 05:48:02;;;;;;;50.60;33.60;;;;;;;;;;106039;1254;60360;-49
2023/03/21 05:50:33;;;;;;;49.50;32.30;;;;;;;;;;105685;1256;60421;-45
2023/03/21 05:53:14;;;;;;;49.70;32.20;;;;;;;;;;105878;1251;60461;-47
2023/03/21 05:55:44;;;;;;;47.30;32.20;;;;;;;;;;105664;1251;62114;-48
2023/03/21 05:58:19;;;;;;;51.80;32.00;;;;;;;;;;107058;1254;60414;-48
2023/03/21 06:00:49;;;;;;;43.60;29.00;;;;;;;;;;105569;1251;117200;-49
2023/03/21 06:03:57;;;;;;;48.50;31.80;;;;;;;;;;102608;1294;601342;-48
2023/03/21 06:06:28;;;;;;;55.40;33.60;;;;;;;;;;105118;1267;58975;-49
2023/03/21 06:08:59;;;;;;;50.10;33.40;;;;;;;;;;104556;1261;59072;-46
2023/03/21 06:11:28;;;;;;;49.10;33.00;;;;;;;;;;104711;1261;59173;-46
2023/03/21 06:14:16;;;;;;;51.10;33.30;;;;;;;;;;104532;1260;59014;-46
2023/03/21 06:16:45;;;;;;;50.50;32.90;;;;;;;;;;105636;1260;177343;-46
2023/03/21 06:19:14;;;;;;;50.40;31.40;;;;;;;;;;105078;1260;59060;-48
2023/03/21 06:22:05;;;;;;;50.20;31.40;;;;;;;;;;105326;1257;59229;-47
2023/03/21 06:24:36;;;;;;;48.10;31.60;;;;;;;;;;105355;1257;60711;-47
2023/03/21 06:27:04;;;;;;;47.20;31.00;;;;;;;;;;106009;1260;59067;-47
2023/03/21 06:29:49;;;;;;;49.50;31.30;;;;;;;;;;105005;1261;60517;-47
2023/03/21 06:32:18;;;;;;;47.40;30.80;;;;;;;;;;105721;1263;60113;-48
2023/03/21 06:34:46;;;;;;;51.20;32.20;;;;;;;;;;106629;1257;59906;-46
2023/03/21 06:37:16;;;;;;;46.10;31.30;;;;;;;;;;108845;1257;61651;-48
2023/03/21 06:39:45;;;;;;;51.30;34.30;;;;;;;;;;108890;1257;57625;-48
2023/03/21 06:42:13;;;;;;;46.70;30.90;;;;;;;;;;108751;1257;59490;-49
2023/03/21 06:44:42;;;;;;;45.50;31.20;;;;;;;;;;108801;1257;57905;-49
2023/03/21 06:47:14;;;;;;;45.30;32.70;;;;;;;;;;108810;1257;58187;-49
2023/03/21 06:49:43;;;;;;;45.60;29.80;;;;;;;;;;105332;1258;62546;-46
2023/03/21 06:52:12;;;;;;;46.60;33.00;;;;;;;;;;108898;1257;58021;-49
2023/03/21 06:54:40;;;;;;;57.30;37.10;;;;;;;;;;108801;1257;60763;-46
2023/03/21 06:57:19;;;;;;;44.80;32.80;;;;;;;;;;108655;1257;58216;-47
2023/03/21 06:59:48;;;;;;;50.10;32.10;;;;;;;;;;108385;1258;58250;-45
2023/03/21 07:02:19;;;;;;;51.20;35.40;;;;;;;;;;105308;1260;60362;-48
2023/03/21 07:05:00;;;;;;;52.20;34.10;;;;;;;;;;105652;1263;59624;-48
2023/03/21 07:07:30;;;;;;;43.90;32.20;;;;;;;;;;105164;1263;59725;-48
2023/03/21 07:10:08;;;;;;;47.20;34.00;;;;;;;;;;105180;1263;59592;-48
2023/03/21 07:12:58;;;;;;;48.00;31.70;;;;;;;;;;105251;1262;59666;-47
2023/03/21 07:15:41;;;;;;;50.10;32.20;;;;;;;;;;108633;1257;60064;-48
2023/03/21 07:18:10;;;;;;;45.90;31.00;;;;;;;;;;108722;1257;59077;-48
2023/03/21 07:20:38;;;;;;;48.10;30.20;;;;;;;;;;108640;1261;59784;-48
2023/03/21 07:23:06;;;;;;;45.70;31.50;;;;;;;;;;108805;1259;57964;-48
2023/03/21 07:25:34;;;;;;;46.10;31.60;;;;;;;;;;108798;1259;58122;-48
2023/03/21 07:28:07;;;;;;;44.70;29.70;;;;;;;;;;108670;1257;60248;-46
2023/03/21 07:30:35;;;;;;;46.70;32.50;;;;;;;;;;105263;1261;59784;-48
2023/03/21 07:33:03;;;;;;;41.20;30.50;;;;;;;;;;105157;1258;60389;-48
2023/03/21 07:35:31;;;;;;;44.30;30.10;;;;;;;;;;105219;1263;59615;-48
2023/03/21 07:38:02;;;;;;;46.40;33.30;;;;;;;;;;104955;1263;59640;-48
2023/03/21 07:40:30;;;;;;;44.00;32.40;;;;;;;;;;105078;1258;62725;-47
2023/03/21 07:42:58;;;;;;;50.50;32.50;;;;;;;;;;105315;1263;59573;-45
2023/03/21 07:45:31;;;;;;;43.10;30.00;;;;;;;;;;105127;1260;60789;-49
2023/03/21 07:48:00;;;;;;;40.60;30.70;;;;;;;;;;105446;1261;59597;-48
2023/03/21 07:50:31;;;;;;;47.30;31.30;;;;;;;;;;104919;1257;59583;-48
2023/03/21 07:53:00;;;;;;;38.40;27.80;;;;;;;;;;104960;1258;61126;-49
2023/03/21 07:55:28;;;;;;;40.70;29.90;;;;;;;;;;105637;1259;59537;-48
2023/03/21 07:57:57;;;;;;;39.20;28.70;;;;;;;;;;105075;1260;59695;-48
2023/03/21 08:00:25;;;;;;;44.10;30.20;;;;;;;;;;104927;1261;59635;-47
2023/03/21 08:02:54;;;;;;;42.80;31.10;;;;;;;;;;104818;1257;59576;-48
2023/03/21 08:05:35;;;;;;;38.80;28.70;;;;;;;;;;108648;1257;61477;-49
2023/03/21 08:08:04;;;;;;;39.70;29.60;;;;;;;;;;105440;1260;60316;-47
2023/03/21 08:10:32;;;;;;;40.00;28.00;;;;;;;;;;104943;1260;60808;-48
2023/03/21 08:13:01;;;;;;;38.20;28.40;;;;;;;;;;105368;1259;59768;-49
2023/03/21 08:15:30;;;;;;;42.90;30.50;;;;;;;;;;105879;1260;59718;-46
2023/03/21 08:17:58;;;;;;;44.90;32.10;;;;;;;;;;105478;1257;60344;-47
2023/03/21 08:20:29;;;;;;;43.60;31.90;;;;;;;;;;105125;1263;60439;-46
2023/03/21 08:22:57;;;;;;;48.20;33.30;;;;;;;;;;105469;1254;60786;-50
2023/03/21 08:25:25;;;;;;;47.10;30.20;;;;;;;;;;105239;1257;59672;-49
2023/03/21 08:27:53;;;;;;;43.20;29.30;;;;;;;;;;105374;1259;59503;-50
2023/03/21 08:30:22;;;;;;;38.00;28.90;;;;;;;;;;105350;1258;60532;-50
2023/03/21 08:32:50;;;;;;;40.60;30.30;;;;;;;;;;105316;1260;60082;-50
2023/03/21 08:35:19;;;;;;;43.70;31.10;;;;;;;;;;105796;1259;60485;-48
2023/03/21 08:37:48;;;;;;;45.30;32.70;;;;;;;;;;106678;1257;59707;-48
2023/03/21 08:40:16;;;;;;;43.70;32.00;;;;;;;;;;105392;1254;59682;-49
2023/03/21 08:42:48;;;;;;;42.10;29.90;;;;;;;;;;105744;1257;61340;-47
2023/03/21 08:45:16;;;;;;;41.10;31.80;;;;;;;;;;109093;1253;57910;-50
2023/03/21 08:47:46;;;;;;;38.50;28.20;;;;;;;;;;106877;1257;60165;-49
2023/03/21 08:50:15;;;;;;;35.30;26.60;;;;;;;;;;105615;1256;59695;-46
2023/03/21 08:52:43;;;;;;;40.60;30.30;;;;;;;;;;105978;1256;59586;-47
2023/03/21 08:55:11;;;;;;;37.10;28.10;;;;;;;;;;105405;1254;61965;-50
2023/03/21 08:57:40;;;;;;;33.20;27.10;;;;;;;;;;105453;1258;59647;-48
2023/03/21 09:00:13;;;;;;;41.00;31.20;;;;;;;;;;105396;1257;61956;-50
2023/03/21 09:02:47;;;;;;;41.80;30.20;;;;;;;;;;106351;1258;59673;-47
2023/03/21 09:05:15;;;;;;;44.70;30.50;;;;;;;;;;105373;1258;59503;-49
2023/03/21 09:07:44;;;;;;;37.00;28.10;;;;;;;;;;105242;1257;61424;-50
2023/03/21 09:10:14;;;;;;;41.30;30.10;;;;;;;;;;105731;1259;59538;-47
2023/03/21 09:12:53;;;;;;;38.60;29.10;;;;;;;;;;105574;1254;60846;-50
2023/03/21 09:15:23;;;;;;;37.40;27.20;;;;;;;;;;107166;1257;59720;-49
2023/03/21 09:17:53;;;;;;;34.90;28.30;;;;;;;;;;106170;1256;59633;-49
2023/03/21 09:20:24;;;;;;;36.90;28.10;;;;;;;;;;105640;1259;61489;-51
2023/03/21 09:22:54;;;;;;;37.20;28.70;;;;;;;;;;105416;1257;59973;-49
2023/03/21 09:25:22;;;;;;;30.60;24.40;;;;;;;;;;105664;1259;60624;-50
2023/03/21 09:27:50;;;;;;;37.20;26.70;;;;;;;;;;106041;1258;60098;-48
2023/03/21 09:30:19;;;;;;;38.70;26.90;;;;;;;;;;106273;1253;59586;-48
2023/03/21 09:32:49;;;;;;;33.70;27.00;;;;;;;;;;106046;1256;61099;-49
2023/03/21 09:35:17;;;;;;;33.80;26.00;;;;;;;;;;106317;1255;59522;-51
2023/03/21 09:37:47;;;;;;;35.30;25.50;;;;;;;;;;105667;1254;60796;-49
2023/03/21 09:40:19;;;;;;;32.90;26.00;;;;;;;;;;105590;1256;59630;-49
2023/03/21 09:42:51;;;;;;;34.40;25.60;;;;;;;;;;105442;1254;59834;-48
2023/03/21 09:45:34;;;;;;;32.90;25.60;;;;;;;;;;104858;1254;61291;-50
2023/03/21 09:48:06;;;;;;;29.10;22.80;;;;;;;;;;104789;1256;59621;-49
2023/03/21 09:50:35;;;;;;;22.80;20.10;;;;;;;;;;104965;1253;60649;-48
2023/03/21 09:53:09;;;;;;;23.60;19.50;;;;;;;;;;104997;1255;60040;-48
2023/03/21 09:55:39;;;;;;;28.60;21.00;;;;;;;;;;107175;1256;59307;-49
2023/03/21 09:58:14;;;;;;;22.30;18.90;;;;;;;;;;109076;1254;60786;-48
2023/03/21 10:00:44;;;;;;;;;;;;;;;;;;109174;1254;59787;-48
2023/03/21 10:03:18;;;;;;;22.60;18.10;;;;;;;;;;108081;1253;60899;-48
2023/03/21 10:05:47;;;;;;;30.70;22.40;;;;;;;;;;109167;1256;58788;-48
2023/03/21 10:08:21;;;;;;;35.50;23.20;;;;;;;;;;109164;1254;59618;-48
2023/03/21 10:10:55;;;;;;;28.40;22.20;;;;;;;;;;108934;1254;61573;-49
2023/03/21 10:13:34;;;;;;;30.20;23.50;;;;;;;;;;108990;1254;59506;-49
2023/03/21 10:16:09;;;;;;;24.40;20.50;;;;;;;;;;108935;1255;61732;-49
2023/03/21 10:18:37;;;;;;;23.70;20.70;;;;;;;;;;108985;1254;59511;-49
2023/03/21 10:21:10;;;;;;;30.30;20.40;;;;;;;;;;107486;1256;61563;-48
2023/03/21 10:23:39;;;;;;;23.80;18.90;;;;;;;;;;109074;1254;63339;-51
2023/03/21 10:26:07;;;;;;;23.30;19.70;;;;;;;;;;109161;1253;60465;-51
2023/03/21 10:28:37;;;;;;;24.20;20.10;;;;;;;;;;108851;1254;61672;-50
2023/03/21 10:31:24;;;;;;;21.60;18.60;;;;;;;;;;108818;1254;59940;-50
2023/03/21 10:33:58;;;;;;;23.50;18.60;;;;;;;;;;108924;1256;59752;-51
2023/03/21 10:36:27;;;;;;;24.10;18.00;;;;;;;;;;108818;1254;63258;-49
2023/03/21 10:38:56;;;;;;;24.30;19.50;;;;;;;;;;107294;1257;60508;-48
2023/03/21 10:41:24;;;;;;;27.00;22.60;;;;;;;;;;108158;1256;62099;-47
2023/03/21 10:44:13;;;;;;;22.30;18.90;;;;;;;;;;105313;1257;61451;-48
2023/03/21 10:46:51;;;;;;;19.10;16.40;;;;;;;;;;105334;1258;61393;-49
2023/03/21 10:49:20;;;;;;;25.00;19.50;;;;;;;;;;108943;1256;63114;-50
2023/03/21 10:51:48;;;;;;;28.00;21.60;;;;;;;;;;106475;1254;61617;-48
2023/03/21 10:54:20;;;;;;;25.40;20.90;;;;;;;;;;105461;1254;61530;-49
2023/03/21 10:56:56;;;;;;;21.30;18.30;;;;;;;;;;106913;1254;61048;-49
2023/03/21 10:59:24;;;;;;;24.20;18.50;;;;;;;;;;105336;1259;60994;-49
2023/03/21 11:01:54;;;;;;;28.90;20.20;;;;;;;;;;105346;1255;62432;-49
2023/03/21 11:04:25;;;;;;;24.40;21.80;;;;;;;;;;105420;1254;60824;-49
2023/03/21 11:06:53;;;;;;;28.10;23.40;;;;;;;;;;105180;1256;61482;-49
2023/03/21 11:09:23;;;;;;;28.40;23.30;;;;;;;;;;105479;1259;60562;-48
2023/03/21 11:12:00;;;;;;;25.50;22.70;;;;;;;;;;105665;1257;60446;-47
2023/03/21 11:14:37;;;;;;;29.80;23.10;;;;;;;;;;105778;1257;64159;-48
2023/03/21 11:17:27;;;;;;;29.80;22.90;;;;;;;;;;106365;1254;60443;-49
2023/03/21 11:19:58;;;;;;;28.20;22.90;;;;;;;;;;105211;1259;61035;-48
2023/03/21 11:22:29;;;;;;;30.10;25.40;;;;;;;;;;105114;1257;61009;-50
2023/03/21 11:25:00;;;;;;;28.00;23.60;;;;;;;;;;105398;1257;60510;-49
2023/03/21 11:27:28;;;;;;;27.90;23.20;;;;;;;;;;105253;1256;62533;-47
2023/03/21 11:29:58;;;;;;;30.70;21.60;;;;;;;;;;105394;1257;60405;-50
2023/03/21 11:32:33;;;;;;;27.90;22.70;;;;;;;;;;109023;1254;60676;-48
2023/03/21 11:35:01;;;;;;;31.50;24.80;;;;;;;;;;108572;1254;61314;-47
2023/03/21 11:37:32;;;;;;;25.90;22.60;;;;;;;;;;106731;1254;61579;-48
2023/03/21 11:40:18;;;;;;;28.30;23.50;;;;;;;;;;105742;1256;61296;-48
2023/03/21 11:42:48;;;;;;;25.80;22.60;;;;;;;;;;109252;1250;59278;-51
2023/03/21 11:45:37;;;;;;;26.30;20.40;;;;;;;;;;106276;1255;63159;-48
2023/03/21 11:48:12;;;;;;;19.90;16.50;;;;;;;;;;105849;1251;59726;-49
2023/03/21 11:50:42;;;;;;;20.50;18.20;;;;;;;;;;107091;1253;60610;-50
2023/03/21 11:53:31;;;;;;;25.60;18.60;;;;;;;;;;105596;1251;62094;-48
2023/03/21 11:56:11;;;;;;;22.80;18.60;;;;;;;;;;105427;1251;61000;-49
2023/03/21 11:58:39;;;;;;;23.30;17.40;;;;;;;;;;105277;1254;60651;-49
2023/03/21 12:01:26;;;;;;;23.60;18.70;;;;;;;;;;105557;1254;61125;-47
2023/03/21 12:04:06;;;;;;;19.80;17.40;;;;;;;;;;105608;1251;60517;-49
2023/03/21 12:06:36;;;;;;;22.30;19.10;;;;;;;;;;104900;1252;62207;-50
2023/03/21 12:09:09;;;;;;;21.70;18.40;;;;;;;;;;105895;1251;60424;-49
2023/03/21 12:11:40;;;;;;;22.30;18.30;;;;;;;;;;105960;1257;62896;-50
2023/03/21 12:14:10;;;;;;;21.60;19.30;;;;;;;;;;105598;1251;60499;-49
2023/03/21 12:16:42;;;;;;;19.80;17.50;;;;;;;;;;105463;1251;60425;-50
2023/03/21 12:19:28;;;;;;;22.60;19.40;;;;;;;;;;109292;1251;61948;-50
2023/03/21 12:22:02;;;;;;;21.70;19.30;;;;;;;;;;105441;1256;60396;-49
2023/03/21 12:24:32;;;;;;;21.00;17.90;;;;;;;;;;105683;1253;61089;-49
2023/03/21 12:27:10;;;;;;;22.60;18.80;;;;;;;;;;106033;1254;60568;-49
2023/03/21 12:29:50;;;;;;;22.50;18.30;;;;;;;;;;105612;1250;60408;-49
2023/03/21 12:32:39;;;;;;;22.40;16.90;;;;;;;;;;106377;1251;62105;-50
2023/03/21 12:35:16;;;;;;;18.50;15.60;;;;;;;;;;106397;1254;60367;-51
2023/03/21 12:37:48;;;;;;;17.20;14.30;;;;;;;;;;109138;1251;61042;-51
2023/03/21 12:40:30;;;;;;;17.20;14.80;;;;;;;;;;108113;1254;58292;-50
2023/03/21 12:43:17;;;;;;;18.50;14.80;;;;;;;;;;105535;1251;61245;-50
2023/03/21 12:45:45;;;;;;;20.50;16.20;;;;;;;;;;105572;1251;62018;-49
2023/03/21 12:48:23;;;;;;;18.70;16.20;;;;;;;;;;109161;1251;58823;-50
2023/03/21 12:50:52;;;;;;;20.80;15.00;;;;;;;;;;108693;1255;61006;-49
2023/03/21 12:53:37;;;;;;;20.70;16.20;;;;;;;;;;105614;1253;60495;-50
2023/03/21 12:56:06;;;;;;;18.50;14.30;;;;;;;;;;105680;1251;60434;-50
2023/03/21 12:58:38;;;;;;;17.00;12.00;;;;;;;;;;105835;1254;61475;-50
2023/03/21 13:01:09;;;;;;;15.90;12.20;;;;;;;;;;109402;1251;58373;-51
2023/03/21 13:03:44;;;;;;;16.20;12.10;;;;;;;;;;109376;1251;59435;-51
2023/03/21 13:06:13;;;;;;;15.00;12.30;;;;;;;;;;109399;1251;58495;-50
2023/03/21 13:08:45;;;;;;;12.80;11.40;;;;;;;;;;109431;1251;58862;-51
2023/03/21 13:11:14;;;;;;;17.00;13.60;;;;;;;;;;109218;1251;62052;-51
2023/03/21 13:13:42;;;;;;;18.30;13.60;;;;;;;;;;109269;1255;58516;-51
2023/03/21 13:16:16;;;;;;;19.20;14.40;;;;;;;;;;109275;1251;59654;-51
2023/03/21 13:18:52;;;;;;;17.00;13.10;;;;;;;;;;109371;1251;58419;-51
2023/03/21 13:21:27;;;;;;;20.70;14.00;;;;;;;;;;109358;1251;58590;-51
2023/03/21 13:24:01;;;;;;;19.00;15.00;;;;;;;;;;109353;1250;62170;-51
2023/03/21 13:26:39;;;;;;;17.80;14.30;;;;;;;;;;109436;1251;58121;-51
2023/03/21 13:29:14;;;;;;;13.10;11.60;;;;;;;;;;109343;1251;59804;-50
2023/03/21 13:31:47;;;;;;;15.40;13.40;;;;;;;;;;109396;1251;58692;-51
2023/03/21 13:34:21;;;;;;;14.10;12.70;;;;;;;;;;109317;1251;58299;-51
2023/03/21 13:36:52;;;;;;;18.10;12.30;;;;;;;;;;109200;1251;62186;-51
2023/03/21 13:39:23;;;;;;;16.20;13.30;;;;;;;;;;109125;1255;59839;-51
2023/03/21 13:41:53;;;;;;;13.20;11.80;;;;;;;;;;105910;1251;60431;-50
2023/03/21 13:44:31;;;;;;;13.70;12.40;;;;;;;;;;109230;1251;58573;-51
2023/03/21 13:47:00;;;;;;;15.90;12.80;;;;;;;;;;108756;1251;58140;-50
2023/03/21 13:49:33;;;;;;;15.20;13.50;;;;;;;;;;106581;1255;62154;-50
2023/03/21 13:52:10;;;;;;;18.40;13.00;;;;;;;;;;106373;1251;60410;-50
2023/03/21 13:54:47;;;;;;;15.60;12.80;;;;;;;;;;105906;1254;61137;-50
2023/03/21 13:57:30;;;;;;;15.80;14.20;;;;;;;;;;105661;1256;60492;-50
2023/03/21 14:00:14;;;;;;;16.00;14.40;;;;;;;;;;105711;1251;60449;-51
2023/03/21 14:02:55;;;;;;;17.70;13.60;;;;;;;;;;105534;1254;62118;-51
2023/03/21 14:05:23;;;;;;;18.20;14.30;;;;;;;;;;106657;1255;60469;-52
2023/03/21 14:07:54;;;;;;;18.30;14.80;;;;;;;;;;106270;1255;60743;-52
2023/03/21 14:10:36;;;;;;;17.60;15.50;;;;;;;;;;105728;1251;60338;-50
2023/03/21 14:13:04;;;;;;;20.60;15.00;;;;;;;;;;105565;1257;60388;-51
2023/03/21 14:15:42;;;;;;;18.00;13.70;;;;;;;;;;107233;1254;61219;-50
2023/03/21 14:18:23;;;;;;;13.90;12.40;;;;;;;;;;107125;1253;58999;-50
2023/03/21 14:21:08;;;;;;;;;;;;;;;;;;105742;1256;60456;-51
2023/03/21 14:23:41;;;;;;;23.30;17.10;;;;;;;;;;105707;1251;60465;-52
2023/03/21 14:26:09;;;;;;;21.60;17.00;;;;;;;;;;106055;1253;60328;-52
2023/03/21 14:28:38;;;;;;;26.70;19.90;;;;;;;;;;105916;1253;61880;-52
2023/03/21 14:31:05;;;;;;;23.80;19.70;;;;;;;;;;105567;1255;60302;-51
2023/03/21 14:33:36;;;;;;;25.00;19.10;;;;;;;;;;105593;1256;60778;-53
2023/03/21 14:36:18;;;;;;;26.30;19.50;;;;;;;;;;106579;1251;60711;-52
2023/03/21 14:38:53;;;;;;;25.00;22.30;;;;;;;;;;105772;1255;60328;-51
2023/03/21 14:41:25;;;;;;;25.80;22.40;;;;;;;;;;105856;1256;60881;-51
2023/03/21 14:44:13;;;;;;;26.10;21.00;;;;;;;;;;105662;1254;60428;-51
2023/03/21 14:46:43;;;;;;;29.90;21.50;;;;;;;;;;106152;1251;60817;-50